Time;durP1;ratioP1;P1;durP2;ratioP2;P2;SDS_P1;SDS_P2;PMS_P1;PMS_P2;Temp;Humidity;BMP_temperature;BMP_pressure;BME280_temperature;BME280_humidity;BME280_pressure;Samples;Min_cycle;Max_cycle;Signal;HPM_P1;HPM_P2
2021/11/21 00:02:24;;;;;;;23.03;9.83;;;6.00;99.90;;;;;;5076715;28;20376;-82
2021/11/21 00:04:50;;;;;;;22.80;9.30;;;6.00;99.90;;;;;;5076183;28;20031;-82
2021/11/21 00:07:16;;;;;;;23.90;9.17;;;6.00;99.90;;;;;;5094199;28;20024;-81
2021/11/21 00:09:42;;;;;;;22.83;9.20;;;6.10;99.90;;;;;;5071591;28;20019;-82
2021/11/21 00:12:07;;;;;;;23.90;9.87;;;6.00;99.90;;;;;;5076264;28;20020;-83
2021/11/21 00:14:34;;;;;;;25.97;10.37;;;6.00;99.90;;;;;;5075600;28;20020;-83
2021/11/21 00:17:02;;;;;;;24.63;10.73;;;6.00;99.90;;;;;;5093870;28;20020;-86
2021/11/21 00:19:27;;;;;;;28.77;10.53;;;6.00;99.90;;;;;;5076186;28;20048;-82
2021/11/21 00:21:53;;;;;;;22.53;10.57;;;6.00;99.90;;;;;;5092978;28;20059;-80
2021/11/21 00:24:19;;;;;;;26.00;10.80;;;6.00;99.90;;;;;;5076162;28;20039;-79
2021/11/21 00:26:45;;;;;;;24.17;10.83;;;5.90;99.90;;;;;;5092947;28;20024;-80
2021/11/21 00:29:10;;;;;;;26.80;10.50;;;5.90;99.90;;;;;;5093504;28;20020;-78
2021/11/21 00:31:36;;;;;;;25.80;10.80;;;5.90;99.90;;;;;;5093142;28;20020;-78
2021/11/21 00:34:02;;;;;;;27.60;11.83;;;5.80;99.90;;;;;;5094438;28;20019;-78
2021/11/21 00:36:27;;;;;;;24.13;10.10;;;5.80;99.90;;;;;;5079776;28;20020;-83
2021/11/21 00:38:53;;;;;;;28.40;11.97;;;5.90;99.90;;;;;;5080104;28;20065;-87
2021/11/21 00:41:18;;;;;;;29.07;11.40;;;5.90;99.90;;;;;;5080134;28;20077;-80
2021/11/21 00:43:44;;;;;;;29.67;12.37;;;5.90;99.90;;;;;;5079456;28;20028;-78
2021/11/21 00:46:10;;;;;;;28.77;11.63;;;5.90;99.90;;;;;;5096839;28;20039;-80
2021/11/21 00:48:37;;;;;;;26.63;11.53;;;5.90;99.90;;;;;;5078470;28;20028;-78
2021/11/21 00:51:05;;;;;;;30.97;11.67;;;5.80;99.90;;;;;;5097434;28;20020;-74
2021/11/21 00:53:31;;;;;;;24.67;11.20;;;5.90;99.90;;;;;;5078576;28;20024;-76
2021/11/21 00:56:04;;;;;;;27.37;12.10;;;5.90;99.90;;;;;;5086620;28;20020;-79
2021/11/21 00:58:32;;;;;;;28.37;12.87;;;5.90;99.90;;;;;;5097610;28;20354;-78
2021/11/21 01:00:58;;;;;;;25.53;11.40;;;6.00;99.90;;;;;;5097081;28;20023;-81
2021/11/21 01:03:25;;;;;;;24.27;11.57;;;6.00;99.90;;;;;;5097833;28;20024;-82
2021/11/21 01:05:53;;;;;;;26.90;11.30;;;6.00;99.90;;;;;;5097174;28;20031;-81
2021/11/21 01:08:19;;;;;;;24.80;11.27;;;6.00;99.90;;;;;;5097980;28;20024;-82
2021/11/21 01:10:50;;;;;;;26.67;12.03;;;6.00;99.90;;;;;;5078956;28;20046;-83
2021/11/21 01:13:16;;;;;;;20.47;10.37;;;5.90;99.90;;;;;;5079916;28;20020;-83
2021/11/21 01:15:42;;;;;;;21.67;11.03;;;5.90;99.90;;;;;;5090716;28;20016;-83
2021/11/21 01:18:08;;;;;;;22.03;11.07;;;5.80;99.90;;;;;;5079599;28;20050;-82
2021/11/21 01:20:37;;;;;;;28.50;11.93;;;5.80;99.90;;;;;;5078667;28;20070;-83
2021/11/21 01:23:03;;;;;;;24.97;11.53;;;5.90;99.90;;;;;;5097806;28;20023;-82
2021/11/21 01:25:29;;;;;;;25.70;12.00;;;5.80;99.90;;;;;;5079184;28;20039;-82
2021/11/21 01:27:57;;;;;;;25.37;11.40;;;5.80;99.90;;;;;;5079234;28;20016;-82
2021/11/21 01:30:26;;;;;;;26.40;11.87;;;5.80;99.90;;;;;;5079459;28;20050;-83
2021/11/21 01:32:53;;;;;;;31.07;11.93;;;5.70;99.90;;;;;;5097155;28;20474;-83
2021/11/21 01:35:19;;;;;;;27.50;11.63;;;5.70;99.90;;;;;;5079190;28;20069;-82
2021/11/21 01:37:45;;;;;;;24.43;11.63;;;5.80;99.90;;;;;;5096456;28;20026;-82
2021/11/21 01:40:13;;;;;;;24.30;11.57;;;5.70;99.90;;;;;;5096549;28;20033;-81
2021/11/21 01:42:42;;;;;;;26.57;11.97;;;5.70;99.90;;;;;;5078061;28;20024;-81
2021/11/21 01:45:09;;;;;;;28.23;11.80;;;5.70;99.90;;;;;;5078077;28;20020;-81
2021/11/21 01:47:39;;;;;;;28.80;12.63;;;5.70;99.90;;;;;;5077337;28;20063;-81
2021/11/21 01:50:07;;;;;;;30.33;12.63;;;5.70;99.90;;;;;;5096576;28;20055;-81
2021/11/21 01:52:33;;;;;;;27.73;12.63;;;5.70;99.90;;;;;;5078347;28;20460;-83
2021/11/21 01:54:59;;;;;;;26.53;11.80;;;5.60;99.90;;;;;;5097124;28;20024;-82
2021/11/21 01:57:25;;;;;;;25.93;11.93;;;5.60;99.90;;;;;;5078918;28;20019;-81
2021/11/21 01:59:51;;;;;;;26.43;12.07;;;5.60;99.90;;;;;;5078349;28;20121;-81
2021/11/21 02:02:17;;;;;;;25.97;11.93;;;5.70;99.90;;;;;;5078787;28;20091;-81
2021/11/21 02:04:43;;;;;;;28.53;12.60;;;5.70;99.90;;;;;;5077693;28;20031;-80
2021/11/21 02:07:09;;;;;;;27.03;12.30;;;5.60;99.90;;;;;;5078412;28;20024;-81
2021/11/21 02:09:34;;;;;;;25.30;11.07;;;5.60;99.90;;;;;;5094105;28;20020;-82
2021/11/21 02:12:00;;;;;;;26.63;11.63;;;5.60;99.90;;;;;;5096644;28;20029;-81
2021/11/21 02:14:25;;;;;;;26.07;10.97;;;5.60;99.90;;;;;;5078118;28;20059;-81
2021/11/21 02:16:51;;;;;;;26.03;11.70;;;5.50;99.90;;;;;;5077915;28;20020;-83
2021/11/21 02:19:18;;;;;;;25.70;11.17;;;5.50;99.90;;;;;;5077865;28;20377;-84
2021/11/21 02:21:43;;;;;;;25.80;11.87;;;5.40;99.90;;;;;;5075415;28;20094;-85
2021/11/21 02:24:09;;;;;;;26.07;11.73;;;5.50;99.90;;;;;;5058172;28;20457;-86
2021/11/21 02:26:35;;;;;;;22.93;11.23;;;5.40;99.90;;;;;;5068006;28;20071;-81
2021/11/21 02:29:00;;;;;;;21.03;10.10;;;5.50;99.90;;;;;;5096252;28;20024;-84
2021/11/21 02:31:29;;;;;;;22.50;10.50;;;5.50;99.90;;;;;;5095666;28;20099;-84
2021/11/21 02:33:55;;;;;;;23.87;10.50;;;5.50;99.90;;;;;;5077834;28;20452;-85
2021/11/21 02:36:22;;;;;;;24.87;11.67;;;5.40;99.90;;;;;;5095931;28;20046;-84
2021/11/21 02:38:49;;;;;;;22.17;11.00;;;5.30;99.90;;;;;;5077587;28;20020;-84
2021/11/21 02:41:15;;;;;;;31.63;12.17;;;5.20;99.90;;;;;;5078016;28;20020;-85
2021/11/21 02:43:43;;;;;;;25.10;10.80;;;5.20;99.90;;;;;;5077736;28;20130;-85
2021/11/21 02:46:10;;;;;;;25.07;11.27;;;5.30;99.90;;;;;;5071990;28;20051;-81
2021/11/21 02:48:37;;;;;;;27.47;11.37;;;5.30;99.90;;;;;;5076960;28;20031;-83
2021/11/21 02:51:05;;;;;;;25.87;10.73;;;5.30;99.90;;;;;;5077593;28;20085;-82
2021/11/21 02:53:33;;;;;;;22.87;10.47;;;5.20;99.90;;;;;;5095135;28;20473;-83
2021/11/21 02:56:00;;;;;;;22.30;10.33;;;5.20;99.90;;;;;;5095037;28;20073;-89
2021/11/21 02:58:27;;;;;;;24.37;10.03;;;5.20;99.90;;;;;;5095615;28;20065;-80
2021/11/21 03:00:55;;;;;;;24.17;9.63;;;5.20;99.90;;;;;;5095364;28;20016;-82
2021/11/21 03:03:20;;;;;;;21.47;9.73;;;5.20;99.90;;;;;;5078241;28;20080;-84
2021/11/21 03:05:46;;;;;;;20.03;9.97;;;5.30;99.90;;;;;;5077774;28;20032;-86
2021/11/21 03:08:12;;;;;;;21.37;8.93;;;5.30;99.90;;;;;;5078379;28;20042;-84
2021/11/21 03:10:38;;;;;;;25.73;9.33;;;5.40;99.90;;;;;;5095199;28;20054;-83
2021/11/21 03:13:06;;;;;;;18.37;9.43;;;5.40;99.90;;;;;;5077618;28;20480;-85
2021/11/21 03:15:33;;;;;;;22.13;10.60;;;5.50;99.90;;;;;;5077802;28;20028;-85
2021/11/21 03:17:59;;;;;;;21.47;9.20;;;5.50;99.90;;;;;;5077038;28;20023;-84
2021/11/21 03:20:27;;;;;;;24.77;10.27;;;5.50;99.90;;;;;;5077628;28;20028;-84
2021/11/21 03:22:54;;;;;;;22.37;9.60;;;5.40;99.90;;;;;;5095179;28;20024;-83
2021/11/21 03:25:20;;;;;;;22.93;10.80;;;5.50;99.90;;;;;;5077526;28;20423;-83
2021/11/21 03:27:46;;;;;;;22.57;9.70;;;5.40;99.90;;;;;;5077377;28;20452;-84
2021/11/21 03:30:16;;;;;;;22.90;10.00;;;5.30;99.90;;;;;;5077689;28;20058;-83
2021/11/21 03:32:42;;;;;;;22.77;10.20;;;5.40;99.90;;;;;;5095044;28;20021;-84
2021/11/21 03:35:08;;;;;;;19.37;10.13;;;5.40;99.90;;;;;;5077231;28;20350;-85
2021/11/21 03:37:35;;;;;;;21.70;9.90;;;5.40;99.90;;;;;;5077609;28;20024;-83
2021/11/21 03:40:03;;;;;;;20.47;9.30;;;5.50;99.90;;;;;;5076877;28;20352;-84
2021/11/21 03:42:28;;;;;;;23.57;10.23;;;5.50;99.90;;;;;;5077424;28;20020;-83
2021/11/21 03:44:54;;;;;;;19.93;9.03;;;5.50;99.90;;;;;;5076735;28;20028;-84
2021/11/21 03:47:20;;;;;;;24.07;10.17;;;5.40;99.90;;;;;;5095220;28;20095;-84
2021/11/21 03:49:45;;;;;;;22.70;9.37;;;5.40;99.90;;;;;;5076424;28;20073;-84
2021/11/21 03:52:11;;;;;;;17.90;9.47;;;5.40;99.90;;;;;;5077732;28;20036;-83
2021/11/21 03:54:37;;;;;;;20.10;8.80;;;5.40;99.90;;;;;;5095225;28;20016;-84
2021/11/21 03:57:04;;;;;;;20.67;9.10;;;5.30;99.90;;;;;;5095389;28;20042;-84
2021/11/21 03:59:29;;;;;;;18.37;9.00;;;5.40;99.90;;;;;;5094397;28;20044;-84
2021/11/21 04:01:58;;;;;;;20.90;9.50;;;5.40;99.90;;;;;;5093781;28;20520;-84
2021/11/21 04:04:26;;;;;;;20.80;9.47;;;5.50;99.90;;;;;;5076432;28;20027;-84
2021/11/21 04:06:51;;;;;;;25.83;10.40;;;5.50;99.90;;;;;;5076420;28;20023;-84
2021/11/21 04:09:17;;;;;;;21.70;10.27;;;5.50;99.90;;;;;;5093888;28;20441;-84
2021/11/21 04:11:43;;;;;;;20.63;9.53;;;5.50;99.90;;;;;;5075409;28;20024;-83
2021/11/21 04:14:08;;;;;;;19.23;8.43;;;5.50;99.90;;;;;;5087365;28;20051;-84
2021/11/21 04:16:34;;;;;;;14.67;6.70;;;5.50;99.90;;;;;;5092583;28;20114;-84
2021/11/21 04:19:00;;;;;;;14.90;6.73;;;5.50;99.90;;;;;;5084044;28;20035;-85
2021/11/21 04:21:25;;;;;;;14.80;6.77;;;5.50;99.90;;;;;;5073578;28;20452;-85
2021/11/21 04:23:51;;;;;;;18.83;6.73;;;5.50;99.90;;;;;;5073144;28;20016;-85
2021/11/21 04:26:17;;;;;;;15.40;6.00;;;5.40;99.90;;;;;;5091613;28;20032;-85
2021/11/21 04:28:43;;;;;;;13.87;6.33;;;5.40;99.90;;;;;;5072862;28;20024;-85
2021/11/21 04:31:08;;;;;;;15.30;6.57;;;5.40;99.90;;;;;;5073252;28;20028;-85
2021/11/21 04:33:34;;;;;;;14.20;5.93;;;5.40;99.90;;;;;;5073690;28;20385;-83
2021/11/21 04:36:00;;;;;;;14.63;6.73;;;5.50;99.90;;;;;;5072669;28;20028;-83
2021/11/21 04:38:25;;;;;;;13.83;6.63;;;5.40;99.90;;;;;;5091274;28;20035;-83
2021/11/21 04:40:53;;;;;;;15.57;6.20;;;5.40;99.90;;;;;;5073034;28;20430;-83
2021/11/21 04:43:22;;;;;;;13.73;6.37;;;5.50;99.90;;;;;;5091303;28;20023;-84
2021/11/21 04:45:49;;;;;;;19.17;6.40;;;5.50;99.90;;;;;;5090884;28;20099;-84
2021/11/21 04:48:15;;;;;;;13.87;6.73;;;5.50;99.90;;;;;;5091266;28;20404;-84
2021/11/21 04:50:41;;;;;;;14.67;6.97;;;5.50;99.90;;;;;;5073228;28;20111;-84
2021/11/21 04:53:07;;;;;;;16.23;7.17;;;5.40;99.90;;;;;;5073329;28;20123;-84
2021/11/21 04:55:33;;;;;;;13.80;7.00;;;5.40;99.90;;;;;;5065482;28;20376;-83
2021/11/21 04:57:59;;;;;;;15.77;6.53;;;5.40;99.90;;;;;;5090730;28;20048;-83
2021/11/21 05:00:25;;;;;;;14.20;6.90;;;5.50;99.90;;;;;;5091183;28;20419;-83
2021/11/21 05:02:51;;;;;;;16.27;7.40;;;5.50;99.90;;;;;;5090752;28;20051;-84
2021/11/21 05:05:19;;;;;;;17.47;7.20;;;5.50;99.90;;;;;;5073624;28;20035;-84
2021/11/21 05:07:45;;;;;;;14.07;6.60;;;5.50;99.90;;;;;;5072700;28;20051;-82
2021/11/21 05:10:11;;;;;;;14.40;6.57;;;5.50;99.90;;;;;;5073309;28;20063;-82
2021/11/21 05:12:38;;;;;;;13.47;6.90;;;5.50;99.90;;;;;;5072912;28;20047;-83
2021/11/21 05:15:06;;;;;;;16.07;7.63;;;5.40;99.90;;;;;;5072469;28;20028;-82
2021/11/21 05:17:31;;;;;;;12.40;5.57;;;5.40;99.90;;;;;;5073161;28;20081;-83
2021/11/21 05:20:00;;;;;;;15.33;6.90;;;5.30;99.90;;;;;;5073091;28;20032;-83
2021/11/21 05:22:27;;;;;;;14.13;6.70;;;5.30;99.90;;;;;;5076746;28;20032;-83
2021/11/21 05:24:53;;;;;;;13.23;6.63;;;5.30;99.90;;;;;;5094350;28;20028;-83
2021/11/21 05:27:19;;;;;;;13.77;6.13;;;5.30;99.90;;;;;;5094426;28;20111;-83
2021/11/21 05:29:45;;;;;;;12.60;6.53;;;5.30;99.90;;;;;;5076881;28;20024;-82
2021/11/21 05:32:11;;;;;;;15.83;6.73;;;5.40;99.90;;;;;;5076905;28;20024;-82
2021/11/21 05:34:37;;;;;;;14.93;6.37;;;5.40;99.90;;;;;;5093852;28;20020;-84
2021/11/21 05:37:04;;;;;;;14.40;6.60;;;5.40;99.90;;;;;;5094673;28;20020;-85
2021/11/21 05:39:29;;;;;;;18.00;7.27;;;5.40;99.90;;;;;;5076963;28;20441;-86
2021/11/21 05:41:55;;;;;;;15.57;7.23;;;5.30;99.90;;;;;;5093792;28;20222;-86
2021/11/21 05:44:21;;;;;;;17.40;7.90;;;5.30;99.90;;;;;;5076580;28;20151;-87
2021/11/21 05:46:46;;;;;;;18.90;8.17;;;5.20;99.90;;;;;;5094327;28;20027;-85
2021/11/21 05:49:12;;;;;;;16.77;7.47;;;5.20;99.90;;;;;;5076087;28;20032;-86
2021/11/21 05:51:38;;;;;;;16.40;8.13;;;5.20;99.90;;;;;;5076407;28;20037;-86
2021/11/21 05:54:04;;;;;;;18.53;8.50;;;5.20;99.90;;;;;;5076516;28;20115;-85
2021/11/21 05:56:29;;;;;;;18.80;8.67;;;5.20;99.90;;;;;;5094109;28;20111;-83
2021/11/21 05:58:55;;;;;;;19.20;8.67;;;5.20;99.90;;;;;;5093615;28;20052;-84
2021/11/21 06:01:21;;;;;;;17.20;8.00;;;5.20;99.90;;;;;;5076310;28;20024;-84
2021/11/21 06:03:48;;;;;;;17.67;7.73;;;5.20;99.90;;;;;;5093693;28;20447;-83
2021/11/21 06:06:13;;;;;;;20.33;7.63;;;5.20;99.90;;;;;;5075309;28;20036;-84
2021/11/21 06:08:39;;;;;;;19.07;7.93;;;5.10;99.90;;;;;;5075672;28;20029;-84
2021/11/21 06:11:05;;;;;;;15.20;7.17;;;5.10;99.90;;;;;;5075857;28;20533;-83
2021/11/21 06:13:30;;;;;;;12.63;6.57;;;5.00;99.90;;;;;;5075566;28;20020;-83
2021/11/21 06:15:56;;;;;;;14.33;6.40;;;5.00;99.90;;;;;;5092918;28;20024;-82
2021/11/21 06:18:22;;;;;;;15.10;6.90;;;5.00;99.90;;;;;;5075959;28;20028;-84
2021/11/21 06:20:48;;;;;;;14.93;7.00;;;5.00;99.90;;;;;;5093227;28;20107;-83
2021/11/21 06:23:14;;;;;;;15.97;7.23;;;5.10;99.90;;;;;;5075645;28;20024;-84
2021/11/21 06:25:42;;;;;;;17.17;6.93;;;5.10;99.90;;;;;;5093432;28;20028;-85
2021/11/21 06:28:08;;;;;;;14.33;7.10;;;5.20;99.90;;;;;;5093149;28;20031;-84
2021/11/21 06:30:34;;;;;;;17.70;6.73;;;5.20;99.90;;;;;;5075512;28;20032;-84
2021/11/21 06:32:59;;;;;;;14.00;6.40;;;5.20;99.90;;;;;;5074213;28;20024;-84
2021/11/21 06:35:25;;;;;;;13.43;6.27;;;5.20;99.90;;;;;;5076204;28;20346;-84
2021/11/21 06:37:51;;;;;;;13.87;6.40;;;5.20;99.90;;;;;;5092922;28;20542;-83
2021/11/21 06:40:17;;;;;;;12.67;5.93;;;5.20;99.90;;;;;;5075766;28;20024;-85
2021/11/21 06:42:43;;;;;;;17.57;7.10;;;5.10;99.90;;;;;;5075598;28;20047;-85
2021/11/21 06:45:10;;;;;;;13.27;6.53;;;5.10;99.90;;;;;;5076522;28;20036;-84
2021/11/21 06:47:36;;;;;;;13.63;5.77;;;5.20;99.90;;;;;;5093344;28;20028;-85
2021/11/21 06:50:05;;;;;;;13.97;6.57;;;5.20;99.90;;;;;;5074949;28;20032;-84
2021/11/21 06:52:31;;;;;;;11.87;5.60;;;5.20;99.90;;;;;;5093488;28;20042;-84
2021/11/21 06:54:57;;;;;;;15.73;6.60;;;5.20;99.90;;;;;;5093210;28;20024;-85
2021/11/21 06:57:23;;;;;;;13.00;5.70;;;5.20;99.90;;;;;;5075050;28;20032;-86
2021/11/21 06:59:49;;;;;;;13.03;4.90;;;5.20;99.90;;;;;;5092736;28;20089;-85
2021/11/21 07:02:15;;;;;;;7.93;4.20;;;5.20;99.90;;;;;;5074424;28;20032;-85
2021/11/21 07:04:40;;;;;;;7.47;3.70;;;5.30;99.90;;;;;;5074988;28;20040;-84
2021/11/21 07:07:11;;;;;;;6.93;3.83;;;5.20;99.90;;;;;;5076066;28;20024;-84
2021/11/21 07:09:37;;;;;;;9.30;3.73;;;5.20;99.90;;;;;;5093493;28;20020;-84
2021/11/21 07:12:03;;;;;;;6.60;3.00;;;5.20;99.90;;;;;;5092080;28;20049;-86
2021/11/21 07:14:28;;;;;;;4.47;2.43;;;5.20;99.90;;;;;;5074734;28;20107;-84
2021/11/21 07:16:54;;;;;;;4.80;2.10;;;5.30;99.90;;;;;;5092369;28;20103;-83
2021/11/21 07:19:20;;;;;;;4.57;2.50;;;5.20;99.90;;;;;;5074477;28;20063;-84
2021/11/21 07:21:46;;;;;;;5.53;2.57;;;5.20;99.90;;;;;;5074482;28;20039;-84
2021/11/21 07:24:12;;;;;;;4.83;2.27;;;5.10;99.90;;;;;;5092276;28;20058;-84
2021/11/21 07:26:38;;;;;;;4.00;1.90;;;5.20;99.90;;;;;;5074190;28;20086;-83
2021/11/21 07:29:05;;;;;;;5.47;2.00;;;5.20;99.90;;;;;;5073602;28;20449;-84
2021/11/21 07:31:32;;;;;;;3.63;1.80;;;5.30;99.90;;;;;;5074061;28;20048;-84
2021/11/21 07:33:57;;;;;;;3.60;1.60;;;5.20;99.90;;;;;;5074513;28;20144;-84
2021/11/21 07:36:23;;;;;;;2.40;1.30;;;5.30;99.90;;;;;;5068430;28;20046;-87
2021/11/21 07:38:49;;;;;;;3.03;1.53;;;5.30;99.90;;;;;;5080987;28;20028;-87
2021/11/21 07:41:15;;;;;;;4.67;2.20;;;5.30;99.90;;;;;;5085091;28;20031;-87
2021/11/21 07:43:41;;;;;;;3.97;2.00;;;5.30;99.90;;;;;;5068016;28;20024;-86
2021/11/21 07:46:07;;;;;;;3.30;1.60;;;5.30;99.90;;;;;;5082229;28;20040;-86
2021/11/21 07:48:33;;;;;;;4.17;2.10;;;5.30;99.90;;;;;;5085678;28;20108;-86
2021/11/21 07:51:00;;;;;;;5.80;1.97;;;5.30;99.90;;;;;;5064201;28;20419;-83
2021/11/21 07:53:26;;;;;;;3.30;2.03;;;5.30;99.90;;;;;;5066675;28;20024;-83
2021/11/21 07:55:53;;;;;;;3.00;1.70;;;5.30;99.90;;;;;;5079768;28;20457;-83
2021/11/21 07:58:19;;;;;;;3.93;1.90;;;5.30;99.90;;;;;;5063953;28;20120;-84
2021/11/21 08:00:46;;;;;;;2.77;1.63;;;5.30;99.90;;;;;;5064619;28;20024;-83
2021/11/21 08:03:11;;;;;;;4.33;2.17;;;5.40;99.90;;;;;;5065998;28;20032;-84
2021/11/21 08:05:37;;;;;;;4.07;2.07;;;5.40;99.90;;;;;;5063498;28;20028;-83
2021/11/21 08:08:03;;;;;;;4.77;2.23;;;5.30;99.90;;;;;;5079923;28;20033;-84
2021/11/21 08:10:29;;;;;;;4.33;2.40;;;5.30;99.90;;;;;;5084528;28;20474;-85
2021/11/21 08:12:55;;;;;;;4.90;2.20;;;5.30;99.90;;;;;;5073146;28;20093;-84
2021/11/21 08:15:21;;;;;;;5.00;2.20;;;5.30;99.90;;;;;;5073335;28;20574;-84
2021/11/21 08:17:46;;;;;;;5.97;2.20;;;5.30;99.90;;;;;;5073176;28;20093;-84
2021/11/21 08:20:12;;;;;;;4.17;2.10;;;5.30;99.90;;;;;;5072638;28;20126;-84
2021/11/21 08:22:38;;;;;;;4.67;1.93;;;5.30;99.90;;;;;;5073582;28;20036;-84
2021/11/21 08:25:05;;;;;;;4.87;2.53;;;5.30;99.90;;;;;;5072651;28;20039;-87
2021/11/21 08:27:30;;;;;;;5.60;2.57;;;5.40;99.90;;;;;;5073372;28;20104;-84
2021/11/21 08:29:56;;;;;;;4.13;2.17;;;5.40;99.90;;;;;;5072632;28;20054;-86
2021/11/21 08:32:22;;;;;;;5.53;2.50;;;5.40;99.90;;;;;;5091438;28;20028;-86
2021/11/21 08:34:48;;;;;;;5.10;2.40;;;5.40;99.90;;;;;;5073043;28;20036;-84
2021/11/21 08:37:14;;;;;;;5.77;2.73;;;5.40;99.90;;;;;;5073225;28;20032;-86
2021/11/21 08:39:40;;;;;;;5.20;2.43;;;5.50;99.90;;;;;;5083812;28;20039;-86
2021/11/21 08:42:06;;;;;;;5.40;2.43;;;5.50;99.90;;;;;;5084100;28;20028;-85
2021/11/21 08:44:31;;;;;;;4.90;2.27;;;5.50;99.90;;;;;;5084711;28;20044;-85
2021/11/21 08:46:57;;;;;;;4.93;2.50;;;5.50;99.90;;;;;;5086456;28;20020;-83
2021/11/21 08:49:23;;;;;;;6.67;2.63;;;5.60;99.90;;;;;;5060935;28;20036;-85
2021/11/21 08:51:49;;;;;;;7.87;2.77;;;5.60;99.90;;;;;;5073205;28;20032;-84
2021/11/21 08:54:16;;;;;;;5.03;2.50;;;5.60;99.90;;;;;;5091174;28;20056;-84
2021/11/21 08:56:49;;;;;;;7.63;2.60;;;5.60;99.90;;;;;;5076190;28;20471;-78
2021/11/21 08:59:15;;;;;;;5.57;2.80;;;5.60;99.90;;;;;;5093800;28;20103;-80
2021/11/21 09:01:42;;;;;;;6.27;2.50;;;5.70;99.90;;;;;;5075987;28;20118;-81
2021/11/21 09:04:08;;;;;;;5.97;2.30;;;5.70;99.90;;;;;;5084096;28;20024;-82
2021/11/21 09:06:34;;;;;;;5.73;2.70;;;5.70;99.90;;;;;;5065239;28;20032;-82
2021/11/21 09:09:00;;;;;;;4.73;2.40;;;5.70;99.90;;;;;;5067341;28;20024;-81
2021/11/21 09:11:26;;;;;;;5.90;2.40;;;5.70;99.90;;;;;;5067234;28;20093;-81
2021/11/21 09:13:52;;;;;;;5.07;2.30;;;5.70;99.90;;;;;;5067187;28;20470;-82
2021/11/21 09:16:17;;;;;;;7.17;2.90;;;5.70;99.90;;;;;;5066559;28;20118;-82
2021/11/21 09:18:43;;;;;;;6.43;2.60;;;5.80;99.90;;;;;;5085225;28;20020;-81
2021/11/21 09:21:09;;;;;;;5.17;2.20;;;5.80;99.90;;;;;;5065828;28;20219;-82
2021/11/21 09:23:36;;;;;;;6.77;2.87;;;5.80;99.90;;;;;;5067836;28;20048;-82
2021/11/21 09:26:01;;;;;;;6.83;2.83;;;5.80;99.90;;;;;;5066786;28;20028;-80
2021/11/21 09:28:27;;;;;;;6.77;2.87;;;5.90;99.90;;;;;;5070569;28;20030;-83
2021/11/21 09:30:55;;;;;;;6.57;3.20;;;5.90;99.90;;;;;;5095162;28;20055;-83
2021/11/21 09:33:21;;;;;;;5.23;2.43;;;5.90;99.90;;;;;;5094861;28;20450;-84
2021/11/21 09:35:47;;;;;;;7.27;2.47;;;5.90;99.90;;;;;;5095297;28;20035;-82
2021/11/21 09:38:14;;;;;;;4.37;2.30;;;5.90;99.90;;;;;;5094892;28;20020;-83
2021/11/21 09:40:40;;;;;;;5.50;2.37;;;5.90;99.90;;;;;;5072242;28;20032;-82
2021/11/21 09:43:06;;;;;;;5.97;2.17;;;5.90;99.90;;;;;;5072822;28;20032;-82
2021/11/21 09:45:32;;;;;;;4.17;1.83;;;5.90;99.90;;;;;;5073782;28;20028;-82
2021/11/21 09:48:00;;;;;;;3.70;1.73;;;5.90;99.90;;;;;;5094357;28;20047;-82
2021/11/21 09:50:28;;;;;;;3.93;1.77;;;6.00;99.90;;;;;;5074754;28;20040;-82
2021/11/21 09:52:54;;;;;;;4.50;1.80;;;6.00;99.90;;;;;;5075012;28;20488;-83
2021/11/21 09:55:28;;;;;;;3.03;1.23;;;6.00;99.90;;;;;;5078126;28;20043;-84
2021/11/21 09:57:54;;;;;;;3.37;1.67;;;6.10;99.90;;;;;;5083544;28;20449;-84
2021/11/21 10:00:22;;;;;;;3.13;1.60;;;6.10;99.90;;;;;;5082985;28;20032;-83
2021/11/21 10:03:02;;;;;;;4.07;1.13;;;6.00;99.90;;;;;;5076393;28;20050;-83
2021/11/21 10:05:30;;;;;;;2.47;1.50;;;6.00;99.90;;;;;;5093447;28;20024;-83
2021/11/21 10:08:12;;;;;;;2.57;1.10;;;6.10;99.90;;;;;;5075213;28;20036;-84
2021/11/21 10:11:03;;;;;;;4.47;1.15;;;6.10;99.90;;;;;;5094768;28;20028;-84
2021/11/21 10:13:36;;;;;;;3.50;1.57;;;6.10;99.90;;;;;;5060806;28;20055;-83
2021/11/21 10:16:17;;;;;;;3.27;1.57;;;6.20;99.90;;;;;;5075812;28;20063;-85
2021/11/21 10:18:58;;;;;;;1.93;1.30;;;6.20;99.90;;;;;;5076346;28;20566;-83
2021/11/21 10:21:27;;;;;;;3.87;1.43;;;6.20;99.90;;;;;;5060146;28;20027;-82
2021/11/21 10:24:27;;;;;;;5.07;2.27;;;6.20;99.90;;;;;;5075498;28;20149;-81
2021/11/21 10:27:04;;;;;;;3.93;1.93;;;6.20;99.90;;;;;;5076238;28;20040;-82
2021/11/21 10:29:36;;;;;;;7.17;2.20;;;6.20;99.90;;;;;;5075464;28;20020;-82
2021/11/21 10:32:23;;;;;;;8.17;2.23;;;6.20;99.90;;;;;;5069206;28;20102;-81
2021/11/21 10:34:51;;;;;;;6.57;2.90;;;6.30;99.90;;;;;;5066881;28;20028;-82
2021/11/21 10:37:18;;;;;;;6.87;2.80;;;6.30;99.90;;;;;;5079985;28;20107;-82
2021/11/21 10:39:46;;;;;;;5.10;2.73;;;6.20;99.90;;;;;;5086326;28;20016;-82
2021/11/21 10:42:12;;;;;;;8.73;3.93;;;6.30;99.90;;;;;;5059685;28;20063;-81
2021/11/21 10:44:48;;;;;;;11.50;4.57;;;6.30;99.90;;;;;;5080400;28;20056;-82
2021/11/21 10:47:14;;;;;;;9.37;4.20;;;6.30;99.90;;;;;;5073865;28;20070;-82
2021/11/21 10:49:40;;;;;;;9.13;3.80;;;6.20;99.90;;;;;;5089509;28;20052;-81
2021/11/21 10:52:17;;;;;;;10.90;4.27;;;6.20;99.90;;;;;;5074631;28;20028;-82
2021/11/21 10:54:49;;;;;;;9.43;4.73;;;6.20;99.90;;;;;;5074946;28;20028;-81
2021/11/21 10:57:19;;;;;;;9.18;5.15;;;6.20;99.90;;;;;;5073967;28;20028;-83
2021/11/21 10:59:51;;;;;;;9.87;4.93;;;6.10;99.90;;;;;;5092306;28;20051;-82
2021/11/21 11:02:24;;;;;;;12.32;5.05;;;6.20;99.90;;;;;;5074759;28;20032;-82
2021/11/21 11:05:09;;;;;;;11.50;5.07;;;6.20;99.90;;;;;;5074126;28;20367;-81
2021/11/21 11:07:47;;;;;;;12.43;4.60;;;6.20;99.90;;;;;;5073675;28;20054;-81
2021/11/21 11:10:25;;;;;;;12.33;5.23;;;6.30;99.90;;;;;;5073547;28;20024;-82
2021/11/21 11:12:53;;;;;;;12.37;5.47;;;6.30;99.90;;;;;;5074632;28;20031;-82
2021/11/21 11:15:20;;;;;;;10.07;4.30;;;6.30;99.90;;;;;;5074043;28;20519;-81
2021/11/21 11:17:47;;;;;;;9.43;4.70;;;6.40;99.90;;;;;;5072639;28;20063;-76
2021/11/21 11:20:16;;;;;;;8.43;4.57;;;6.40;99.90;;;;;;5067896;28;20023;-83
2021/11/21 11:22:42;;;;;;;12.03;4.60;;;6.50;99.90;;;;;;5084851;28;20028;-81
2021/11/21 11:25:21;;;;;;;19.87;5.30;;;6.50;99.90;;;;;;5073642;28;20085;-80
2021/11/21 11:27:49;;;;;;;10.67;4.93;;;6.60;99.90;;;;;;5071435;28;20032;-78
2021/11/21 11:30:28;;;;;;;10.20;4.53;;;6.60;99.90;;;;;;5085310;28;20472;-80
2021/11/21 11:33:07;;;;;;;11.80;4.80;;;6.70;99.90;;;;;;5081301;28;20033;-79
2021/11/21 11:35:35;;;;;;;9.20;4.37;;;6.70;99.90;;;;;;5070844;28;20030;-78
2021/11/21 11:38:36;;;;;;;12.00;5.00;;;6.60;99.90;;;;;;5092636;28;20024;-79
2021/11/21 11:41:04;;;;;;;10.37;4.90;;;6.60;99.90;;;;;;4998095;28;20030;-80
2021/11/21 11:43:35;;;;;;;9.63;4.77;;;6.60;99.90;;;;;;5058369;28;20032;-80
2021/11/21 11:46:14;;;;;;;10.20;4.70;;;6.60;99.90;;;;;;5075991;28;20024;-85
2021/11/21 11:48:43;;;;;;;7.60;4.00;;;6.60;99.90;;;;;;5073611;28;20027;-86
2021/11/21 11:51:19;;;;;;;10.63;4.23;;;6.60;99.90;;;;;;5075811;28;20086;-85
2021/11/21 11:53:47;;;;;;;8.43;4.40;;;6.60;99.90;;;;;;5076573;28;20027;-86
2021/11/21 11:56:24;;;;;;;7.83;4.23;;;6.60;99.90;;;;;;5074139;28;20043;-88
2021/11/21 11:59:00;;;;;;;8.37;4.00;;;6.60;99.90;;;;;;5089085;28;20096;-86
2021/11/21 12:01:38;;;;;;;8.50;3.73;;;6.60;99.90;;;;;;5076543;28;20548;-88
2021/11/21 12:04:05;;;;;;;10.10;4.00;;;6.60;99.90;;;;;;5087353;28;20031;-87
2021/11/21 12:06:41;;;;;;;8.97;4.43;;;6.60;99.90;;;;;;5075820;28;20123;-86
2021/11/21 12:09:16;;;;;;;10.27;4.70;;;6.60;99.90;;;;;;5074865;28;20031;-82
2021/11/21 12:12:01;;;;;;;10.87;4.67;;;6.50;99.90;;;;;;5075387;28;20369;-82
2021/11/21 12:14:35;;;;;;;9.30;4.23;;;6.50;99.90;;;;;;5070633;28;20028;-82
2021/11/21 12:17:02;;;;;;;8.27;3.87;;;6.60;99.90;;;;;;5066199;28;20028;-81
2021/11/21 12:19:53;;;;;;;8.50;3.67;;;6.60;99.90;;;;;;5093580;28;20103;-87
2021/11/21 12:22:25;;;;;;;10.70;3.80;;;6.60;99.90;;;;;;5074866;28;20016;-82
2021/11/21 12:25:01;;;;;;;;;;;6.60;99.90;;;;;;5093757;28;20036;-83
2021/11/21 12:27:37;;;;;;;8.27;4.10;;;6.60;99.90;;;;;;5073853;28;19914;-83
2021/11/21 12:30:24;;;;;;;8.20;4.40;;;6.60;99.90;;;;;;5076735;28;20058;-82
2021/11/21 12:32:59;;;;;;;8.00;3.80;;;6.60;99.90;;;;;;5075298;28;20032;-86
2021/11/21 12:35:28;;;;;;;7.67;3.60;;;6.70;99.90;;;;;;5075894;28;20074;-86
2021/11/21 12:37:56;;;;;;;11.27;4.47;;;6.70;99.90;;;;;;5069248;28;20020;-87
2021/11/21 12:40:46;;;;;;;7.80;3.83;;;6.70;99.90;;;;;;5069517;28;20054;-77
2021/11/21 12:43:15;;;;;;;9.43;4.03;;;6.60;99.90;;;;;;5090477;28;20032;-78
2021/11/21 12:45:42;;;;;;;8.93;4.20;;;6.60;99.90;;;;;;5071959;28;20473;-86
2021/11/21 12:48:10;;;;;;;8.27;4.23;;;6.60;99.90;;;;;;5074066;28;20028;-81
2021/11/21 12:50:40;;;;;;;7.37;3.67;;;6.60;99.90;;;;;;5070959;28;20109;-85
2021/11/21 12:53:21;;;;;;;7.30;4.00;;;6.60;99.90;;;;;;5083148;28;20055;-87